createdAt,value
2018-05-24T00:00:42.762Z,6.03
2018-05-24T00:03:15.444Z,6.70
2018-05-24T00:05:45.198Z,6.50
2018-05-24T00:08:21.581Z,6.00
2018-05-24T00:10:50.323Z,6.03
2018-05-24T00:13:19.536Z,6.47
2018-05-24T00:15:49.005Z,6.30
2018-05-24T00:18:21.792Z,6.33
2018-05-24T00:20:50.623Z,6.90
2018-05-24T00:23:24.156Z,6.73
2018-05-24T00:25:53.724Z,6.50
2018-05-24T00:28:26.033Z,6.70
2018-05-24T00:30:56.001Z,7.27
2018-05-24T00:33:28.437Z,6.60
2018-05-24T00:35:57.711Z,6.17
2018-05-24T00:38:31.572Z,6.70
2018-05-24T00:41:01.323Z,6.97
2018-05-24T00:43:32.518Z,6.80
2018-05-24T00:46:01.369Z,7.07
2018-05-24T00:48:37.545Z,7.10
2018-05-24T00:51:06.422Z,6.90
2018-05-24T00:53:39.144Z,7.67
2018-05-24T00:56:07.912Z,7.43
2018-05-24T00:58:40.250Z,7.03
2018-05-24T01:01:10.352Z,7.37
2018-05-24T01:03:40.850Z,6.87
2018-05-24T01:06:09.992Z,7.23
2018-05-24T01:08:43.880Z,7.10
2018-05-24T01:11:12.853Z,7.13
2018-05-24T01:13:50.525Z,7.20
2018-05-24T01:16:19.515Z,7.10
2018-05-24T01:18:49.041Z,7.40
2018-05-24T01:21:17.944Z,7.23
2018-05-24T01:23:54.699Z,7.70
2018-05-24T01:26:23.472Z,7.90
2018-05-24T01:28:55.908Z,7.50
2018-05-24T01:31:32.003Z,7.17
2018-05-24T01:34:00.843Z,7.37
2018-05-24T01:36:46.081Z,6.47
2018-05-24T01:39:14.833Z,7.50
2018-05-24T01:41:43.609Z,6.67
2018-05-24T01:44:13.184Z,7.67
2018-05-24T01:46:49.594Z,7.40
2018-05-24T01:51:57.967Z,7.80
2018-05-24T01:54:26.679Z,8.17
2018-05-24T01:56:55.363Z,7.80
2018-05-24T01:59:24.419Z,8.27
2018-05-24T02:01:53.141Z,7.50
2018-05-24T02:04:21.887Z,8.00
2018-05-24T02:06:50.589Z,7.60
2018-05-24T02:09:19.286Z,7.60
2018-05-24T02:11:48.307Z,7.53
2018-05-24T02:14:19.938Z,7.27
2018-05-24T02:16:49.525Z,7.37
2018-05-24T02:19:22.617Z,8.40
2018-05-24T02:21:52.137Z,7.23
2018-05-24T02:24:24.281Z,6.80
2018-05-24T02:26:52.997Z,7.90
2018-05-24T02:32:04.978Z,7.27
2018-05-24T02:34:33.763Z,6.90
2018-05-24T02:37:02.767Z,7.27
2018-05-24T02:39:36.265Z,7.17
2018-05-24T02:42:05.052Z,6.90
2018-05-24T02:44:33.747Z,7.00
2018-05-24T02:47:02.714Z,6.93
2018-05-24T02:49:35.183Z,8.40
2018-05-24T02:52:03.897Z,8.03
2018-05-24T02:54:40.799Z,7.10
2018-05-24T02:57:10.396Z,7.50
2018-05-24T02:59:39.848Z,7.47
2018-05-24T03:02:08.860Z,8.07
2018-05-24T03:04:45.244Z,7.97
2018-05-24T03:07:14.235Z,7.40
2018-05-24T03:09:44.690Z,8.10
2018-05-24T03:12:13.439Z,7.87
2018-05-24T03:14:50.085Z,7.97
2018-05-24T03:17:18.792Z,8.87
2018-05-24T03:19:49.150Z,8.10
2018-05-24T03:22:18.628Z,8.00
2018-05-24T03:24:54.878Z,8.77
2018-05-24T03:27:23.641Z,7.30
2018-05-24T03:29:54.320Z,7.17
2018-05-24T03:32:23.057Z,7.77
2018-05-24T03:34:57.290Z,7.07
2018-05-24T03:37:26.064Z,6.80
2018-05-24T03:39:59.812Z,7.20
2018-05-24T03:42:28.605Z,7.63
2018-05-24T03:45:05.025Z,7.47
2018-05-24T03:47:33.844Z,8.63
2018-05-24T03:50:06.056Z,7.70
2018-05-24T03:52:34.719Z,7.93
2018-05-24T03:55:08.169Z,7.97
2018-05-24T03:57:37.024Z,7.47
2018-05-24T04:00:16.940Z,7.93
2018-05-24T04:02:57.034Z,8.10
2018-05-24T04:05:25.831Z,8.80
2018-05-24T04:07:54.848Z,8.73
2018-05-24T04:10:23.596Z,8.57
2018-05-24T04:12:52.335Z,8.10
2018-05-24T04:15:21.372Z,8.27
2018-05-24T04:17:50.183Z,6.40
2018-05-24T04:20:20.467Z,6.87
2018-05-24T04:22:50.229Z,6.23
2018-05-24T04:25:26.025Z,6.97
2018-05-24T04:27:55.569Z,6.10
2018-05-24T04:30:24.689Z,6.47
2018-05-24T04:32:53.465Z,6.90
2018-05-24T04:35:29.993Z,6.13
2018-05-24T04:37:59.515Z,5.17
2018-05-24T04:40:28.984Z,6.40
2018-05-24T04:42:57.766Z,6.10
2018-05-24T04:45:31.197Z,6.70
2018-05-24T04:47:59.853Z,6.10
2018-05-24T04:50:33.094Z,5.87
2018-05-24T04:53:01.810Z,5.80
2018-05-24T04:55:39.208Z,6.40
2018-05-24T04:58:08.698Z,5.97
2018-05-24T05:00:37.834Z,5.60
2018-05-24T05:03:07.345Z,5.60
2018-05-24T05:05:40.356Z,5.40
2018-05-24T05:08:09.216Z,5.60
2018-05-24T05:10:43.182Z,5.60
2018-05-24T05:13:11.993Z,5.60
2018-05-24T05:15:45.233Z,4.80
2018-05-24T05:18:15.081Z,4.50
2018-05-24T05:20:47.537Z,4.83
2018-05-24T05:23:16.310Z,4.47
2018-05-24T05:25:48.562Z,4.10
2018-05-24T05:28:17.375Z,3.43
2018-05-24T05:30:53.789Z,3.90
2018-05-24T05:33:23.348Z,3.70
2018-05-24T05:35:56.637Z,3.33
2018-05-24T05:38:25.535Z,3.03
2018-05-24T05:40:58.756Z,3.37
2018-05-24T05:43:27.750Z,2.80
2018-05-24T05:46:04.485Z,3.20
2018-05-24T05:48:33.663Z,4.17
2018-05-24T05:51:02.810Z,3.50
2018-05-24T05:53:31.677Z,4.23
2018-05-24T05:56:05.411Z,3.13
2018-05-24T05:58:34.936Z,2.63
2018-05-24T06:01:09.420Z,2.50
2018-05-24T06:03:38.424Z,2.60
2018-05-24T06:06:15.162Z,2.17
2018-05-24T06:08:44.030Z,2.70
2018-05-24T06:11:14.816Z,2.53
2018-05-24T06:13:44.460Z,2.70
2018-05-24T06:16:17.101Z,2.67
2018-05-24T06:18:45.913Z,2.37
2018-05-24T06:21:19.053Z,2.63
2018-05-24T06:23:48.125Z,2.90
2018-05-24T06:26:20.939Z,2.67
2018-05-24T06:28:50.562Z,2.87
2018-05-24T06:31:33.647Z,2.37
2018-05-24T06:34:02.412Z,2.67
2018-05-24T06:36:31.190Z,3.20
2018-05-24T06:39:00.363Z,2.80
2018-05-24T06:41:29.174Z,2.90
2018-05-24T06:43:58.023Z,3.27
2018-05-24T06:46:31.103Z,2.90
2018-05-24T06:48:59.942Z,2.80
2018-05-24T06:51:32.538Z,2.80
2018-05-24T06:54:01.968Z,3.00
2018-05-24T06:56:38.865Z,3.37
2018-05-24T06:59:07.942Z,2.93
2018-05-24T07:01:42.127Z,3.67
2018-05-24T07:04:12.459Z,2.90
2018-05-24T07:06:41.317Z,3.67
2018-05-24T07:09:10.079Z,2.83
2018-05-24T07:11:42.288Z,2.90
2018-05-24T07:14:11.355Z,2.73
2018-05-24T07:16:44.839Z,3.00
2018-05-24T07:19:14.704Z,2.90
2018-05-24T07:21:48.186Z,3.17
2018-05-24T07:24:17.116Z,2.57
2018-05-24T07:26:54.181Z,3.07
2018-05-24T07:29:23.539Z,2.50
2018-05-24T07:31:57.697Z,3.03
2018-05-24T07:34:26.967Z,2.80
2018-05-24T07:36:59.002Z,2.70
2018-05-24T07:39:28.737Z,2.80
2018-05-24T07:41:58.631Z,2.30
2018-05-24T07:44:28.343Z,2.40
2018-05-24T07:47:03.728Z,2.37
2018-05-24T07:49:32.998Z,2.53
2018-05-24T07:52:05.428Z,2.63
2018-05-24T07:54:34.474Z,3.43
2018-05-24T07:57:06.930Z,3.00
2018-05-24T07:59:35.958Z,3.10
2018-05-24T08:02:11.171Z,3.20
2018-05-24T08:04:41.103Z,3.13
2018-05-24T08:07:17.182Z,2.37
2018-05-24T08:09:46.390Z,2.50
2018-05-24T08:12:15.145Z,2.97
2018-05-24T08:14:44.067Z,2.80
2018-05-24T08:17:15.463Z,2.93
2018-05-24T08:19:44.282Z,3.40
2018-05-24T08:22:20.704Z,3.07
2018-05-24T08:24:50.468Z,2.83
2018-05-24T08:27:19.553Z,2.93
2018-05-24T08:29:48.412Z,2.67
2018-05-24T08:32:22.714Z,3.70
2018-05-24T08:34:51.598Z,3.43
2018-05-24T08:37:24.810Z,4.80
2018-05-24T08:39:53.645Z,3.77
2018-05-24T08:42:27.459Z,3.03
2018-05-24T08:44:56.289Z,3.00
2018-05-24T08:47:29.937Z,3.23
2018-05-24T08:49:58.759Z,3.07
2018-05-24T08:52:35.393Z,3.60
2018-05-24T08:55:04.286Z,3.43
2018-05-24T08:57:33.744Z,3.50
2018-05-24T09:00:02.581Z,3.23
2018-05-24T09:02:39.420Z,3.23
2018-05-24T09:05:08.539Z,3.70
2018-05-24T09:07:39.176Z,3.07
2018-05-24T09:10:10.010Z,3.33
2018-05-24T09:12:41.865Z,3.67
2018-05-24T09:15:10.690Z,3.77
2018-05-24T09:17:47.324Z,4.17
2018-05-24T09:20:16.447Z,3.57
2018-05-24T09:22:45.295Z,2.90
2018-05-24T09:25:14.126Z,3.53
2018-05-24T09:27:50.365Z,4.47
2018-05-24T09:30:19.168Z,3.80
2018-05-24T09:32:50.960Z,3.63
2018-05-24T09:35:20.936Z,4.03
2018-05-24T09:37:54.242Z,4.20
2018-05-24T09:40:23.069Z,4.80
2018-05-24T09:42:58.229Z,6.40
2018-05-24T09:45:27.067Z,3.87
2018-05-24T09:48:05.449Z,4.20
2018-05-24T09:50:34.528Z,4.03
2018-05-24T09:53:04.142Z,3.13
2018-05-24T09:55:33.347Z,3.97
2018-05-24T09:58:04.174Z,4.17
2018-05-24T10:00:33.146Z,4.93
2018-05-24T10:03:10.193Z,5.07
2018-05-24T10:05:39.870Z,5.47
2018-05-24T10:08:08.914Z,5.00
2018-05-24T10:10:38.294Z,4.50
2018-05-24T10:13:14.296Z,4.20
2018-05-24T10:15:43.201Z,4.80
2018-05-24T10:18:13.650Z,4.27
2018-05-24T10:20:42.445Z,4.73
2018-05-24T10:23:16.014Z,4.10
2018-05-24T10:25:44.858Z,4.30
2018-05-24T10:28:18.043Z,5.10
2018-05-24T10:30:46.888Z,4.10
2018-05-24T10:33:23.223Z,5.00
2018-05-24T10:35:52.061Z,5.13
2018-05-24T10:38:22.976Z,4.83
2018-05-24T10:40:52.026Z,3.80
2018-05-24T10:43:25.700Z,4.73
2018-05-24T10:45:55.556Z,4.83
2018-05-24T10:48:29.805Z,4.13
2018-05-24T10:50:58.702Z,5.33
2018-05-24T10:53:29.557Z,4.80
2018-05-24T10:55:59.527Z,5.37
2018-05-24T10:58:32.598Z,6.33
2018-05-24T11:01:01.502Z,5.07
2018-05-24T11:03:34.230Z,5.57
2018-05-24T11:06:04.074Z,4.70
2018-05-24T11:08:37.063Z,4.77
2018-05-24T11:11:06.478Z,4.37
2018-05-24T11:13:38.905Z,5.33
2018-05-24T11:16:08.597Z,5.20
2018-05-24T11:18:40.617Z,4.50
2018-05-24T11:21:09.714Z,4.60
2018-05-24T11:23:42.966Z,4.43
2018-05-24T11:26:12.075Z,4.90
2018-05-24T11:28:49.892Z,5.73
2018-05-24T11:31:18.685Z,4.90
2018-05-24T11:33:48.340Z,5.27
2018-05-24T11:36:18.255Z,4.87
2018-05-24T11:38:51.172Z,5.17
2018-05-24T11:41:20.035Z,4.80
2018-05-24T11:43:57.173Z,4.77
2018-05-24T11:46:26.122Z,4.83
2018-05-24T11:48:57.599Z,5.23
2018-05-24T11:51:26.683Z,4.90
2018-05-24T11:53:59.329Z,4.93
2018-05-24T11:56:28.886Z,6.20
2018-05-24T11:59:01.981Z,5.90
2018-05-24T12:01:30.951Z,6.37
2018-05-24T12:04:03.601Z,5.30
2018-05-24T12:06:33.181Z,5.47
2018-05-24T12:09:06.853Z,6.30
2018-05-24T12:11:35.692Z,5.33
2018-05-24T12:14:12.916Z,5.87
2018-05-24T12:16:42.023Z,5.53
2018-05-24T12:19:12.296Z,5.57
2018-05-24T12:21:42.119Z,5.43
2018-05-24T12:24:14.475Z,5.43
2018-05-24T12:26:44.103Z,5.53
2018-05-24T12:29:16.535Z,5.37
2018-05-24T12:31:45.667Z,6.03
2018-05-24T12:34:22.129Z,5.17
2018-05-24T12:36:51.789Z,5.07
2018-05-24T12:39:20.685Z,4.77
2018-05-24T12:41:49.499Z,5.80
2018-05-24T12:44:22.921Z,5.13
2018-05-24T12:46:52.532Z,5.73
2018-05-24T12:49:30.092Z,5.07
2018-05-24T12:52:00.923Z,5.00
2018-05-24T12:54:32.138Z,5.20
2018-05-24T12:57:02.158Z,5.13
2018-05-24T12:59:31.357Z,4.67
2018-05-24T13:02:00.228Z,5.30
2018-05-24T13:04:31.304Z,4.80
2018-05-24T13:07:00.422Z,5.03
2018-05-24T13:09:33.102Z,4.97
2018-05-24T13:12:01.919Z,5.30
2018-05-24T13:14:39.249Z,5.43
2018-05-24T13:17:08.224Z,4.83
2018-05-24T13:19:37.873Z,6.07
2018-05-24T13:22:07.778Z,5.40
2018-05-24T13:24:41.181Z,5.20
2018-05-24T13:27:10.817Z,6.20
2018-05-24T13:29:42.325Z,5.40
2018-05-24T13:32:11.198Z,5.77
2018-05-24T13:34:44.970Z,5.80
2018-05-24T13:37:14.578Z,6.23
2018-05-24T13:39:51.130Z,5.77
2018-05-24T13:42:19.993Z,5.80
2018-05-24T13:44:49.969Z,5.20
2018-05-24T13:47:18.847Z,6.00
2018-05-24T13:49:55.344Z,6.00
2018-05-24T13:52:24.133Z,5.93
2018-05-24T13:54:56.001Z,6.30
2018-05-24T13:57:34.071Z,6.43
2018-05-24T14:00:03.237Z,6.30
2018-05-24T14:02:32.868Z,6.17
2018-05-24T14:05:02.875Z,5.70
2018-05-24T14:07:32.630Z,5.27
2018-05-24T14:10:03.208Z,5.47
2018-05-24T14:12:32.521Z,5.67
2018-05-24T14:15:05.309Z,6.07
2018-05-24T14:17:34.165Z,6.37
2018-05-24T14:20:08.296Z,6.33
2018-05-24T14:22:37.278Z,6.30
2018-05-24T14:27:12.716Z,5.70
2018-05-24T14:29:42.325Z,6.33
2018-05-24T14:32:14.764Z,6.27
2018-05-24T14:34:43.707Z,6.27
2018-05-24T14:37:17.195Z,6.10
2018-05-24T14:39:46.610Z,6.70
2018-05-24T14:42:20.814Z,6.23
2018-05-24T14:44:49.614Z,6.60
2018-05-24T14:47:21.700Z,5.93
2018-05-24T14:49:50.634Z,5.67
2018-05-24T14:52:24.272Z,6.60
2018-05-24T14:54:53.369Z,6.13
2018-05-24T14:57:25.630Z,7.87
2018-05-24T14:59:55.211Z,6.10
2018-05-24T15:02:26.744Z,6.23
2018-05-24T15:04:55.619Z,6.87
2018-05-24T15:07:31.644Z,6.57
2018-05-24T15:10:00.702Z,5.90
2018-05-24T15:12:31.448Z,6.73
2018-05-24T15:15:00.328Z,7.30
2018-05-24T15:17:33.675Z,8.07
2018-05-24T15:20:02.464Z,6.97
2018-05-24T15:22:39.190Z,7.27
2018-05-24T15:25:07.965Z,7.07
2018-05-24T15:27:38.331Z,7.27
2018-05-24T15:30:07.296Z,8.30
2018-05-24T15:32:40.982Z,7.70
2018-05-24T15:35:10.638Z,7.40
2018-05-24T15:37:43.931Z,7.90
2018-05-24T15:40:13.081Z,8.23
2018-05-24T15:42:45.573Z,7.30
2018-05-24T15:45:14.400Z,7.97
2018-05-24T15:47:51.103Z,8.60
2018-05-24T15:50:20.202Z,7.73
2018-05-24T15:52:49.826Z,8.33
2018-05-24T15:55:18.675Z,8.53
2018-05-24T15:57:52.728Z,8.00
2018-05-24T16:00:21.670Z,8.10
2018-05-24T16:02:54.253Z,8.10
2018-05-24T16:05:23.437Z,7.97
2018-05-24T16:08:00.308Z,7.67
2018-05-24T16:10:29.293Z,8.53
2018-05-24T16:13:02.013Z,8.43
2018-05-24T16:15:31.672Z,8.43
2018-05-24T16:18:02.346Z,9.10
2018-05-24T16:20:31.235Z,9.23
2018-05-24T16:23:08.256Z,8.47
2018-05-24T16:25:37.611Z,8.93
2018-05-24T16:28:07.846Z,9.10
2018-05-24T16:30:36.822Z,8.77
2018-05-24T16:33:11.955Z,9.13
2018-05-24T16:35:41.222Z,8.67
2018-05-24T16:38:17.816Z,9.47
2018-05-24T16:40:46.709Z,8.97
2018-05-24T16:43:16.908Z,10.03
2018-05-24T16:45:45.880Z,10.03
2018-05-24T16:48:18.618Z,9.93
2018-05-24T16:50:47.575Z,10.43
2018-05-24T16:53:23.708Z,14.93
2018-05-24T16:55:58.396Z,13.87
2018-05-24T16:58:29.029Z,10.97
2018-05-24T17:00:58.729Z,11.07
2018-05-24T17:03:27.916Z,10.83
2018-05-24T17:05:56.817Z,11.93
2018-05-24T17:08:26.011Z,14.43
2018-05-24T17:10:55.175Z,10.67
2018-05-24T17:13:31.602Z,9.93
2018-05-24T17:16:00.637Z,11.40
2018-05-24T17:18:31.187Z,12.07
2018-05-24T17:21:00.309Z,9.90
2018-05-24T17:23:37.834Z,9.37
2018-05-24T17:26:13.924Z,9.57
2018-05-24T17:28:43.824Z,9.00
2018-05-24T17:31:13.027Z,9.37
2018-05-24T17:33:43.317Z,9.40
2018-05-24T17:36:12.473Z,9.50
2018-05-24T17:38:41.853Z,8.60
2018-05-24T17:41:11.977Z,9.03
2018-05-24T17:43:45.167Z,8.87
2018-05-24T17:46:14.090Z,9.60
2018-05-24T17:48:44.836Z,9.33
2018-05-24T17:51:13.843Z,9.10
2018-05-24T17:53:50.953Z,8.30
2018-05-24T17:56:20.181Z,9.60
2018-05-24T17:58:50.385Z,8.97
2018-05-24T18:01:19.378Z,9.37
2018-05-24T18:03:55.986Z,9.07
2018-05-24T18:06:25.719Z,9.37
2018-05-24T18:08:55.352Z,9.50
2018-05-24T18:11:24.599Z,9.90
2018-05-24T18:13:58.008Z,10.60
2018-05-24T18:16:27.007Z,10.40
2018-05-24T18:19:01.366Z,9.67
2018-05-24T18:21:30.367Z,10.10
2018-05-24T18:24:06.909Z,10.07
2018-05-24T18:26:36.135Z,9.70
2018-05-24T18:29:06.623Z,9.70
2018-05-24T18:31:35.633Z,9.77
2018-05-24T18:34:09.565Z,11.70
2018-05-24T18:36:39.340Z,9.60
2018-05-24T18:39:12.256Z,9.47
2018-05-24T18:41:43.226Z,9.60
2018-05-24T18:44:15.533Z,9.23
2018-05-24T18:46:45.256Z,9.70
2018-05-24T18:49:17.470Z,9.47
2018-05-24T18:51:47.237Z,9.77
2018-05-24T18:54:23.585Z,10.30
2018-05-24T18:56:52.676Z,9.60
2018-05-24T18:59:22.747Z,9.23
2018-05-24T19:01:53.551Z,9.57
2018-05-24T19:04:29.652Z,9.17
2018-05-24T19:06:59.642Z,9.43
2018-05-24T19:09:28.622Z,9.50
2018-05-24T19:11:57.631Z,8.40
2018-05-24T19:14:30.602Z,9.73
2018-05-24T19:16:59.785Z,9.00
2018-05-24T19:19:30.715Z,8.30
2018-05-24T19:21:59.947Z,9.53
2018-05-24T19:24:33.321Z,8.53
2018-05-24T19:27:02.278Z,8.40
2018-05-24T19:29:35.334Z,7.83
2018-05-24T19:32:04.286Z,7.67
2018-05-24T19:34:40.506Z,8.80
2018-05-24T19:37:10.727Z,8.17
2018-05-24T19:39:40.610Z,8.17
2018-05-24T19:42:09.547Z,7.97
2018-05-24T19:44:40.098Z,8.60
2018-05-24T19:47:09.781Z,7.23
2018-05-24T19:49:42.148Z,8.90
2018-05-24T19:52:12.180Z,8.90
2018-05-24T19:54:44.873Z,7.83
2018-05-24T19:57:14.810Z,8.97
2018-05-24T19:59:46.792Z,9.23
2018-05-24T20:02:15.734Z,9.83
2018-05-24T20:04:52.272Z,8.63
2018-05-24T20:07:21.404Z,9.27
2018-05-24T20:09:51.635Z,8.20
2018-05-24T20:12:20.627Z,8.30
2018-05-24T20:14:57.815Z,7.83
2018-05-24T20:17:28.876Z,7.53
2018-05-24T20:19:57.807Z,7.80
2018-05-24T20:22:31.390Z,8.47
2018-05-24T20:25:01.203Z,7.83
2018-05-24T20:27:39.885Z,7.70
2018-05-24T20:30:09.850Z,8.77
2018-05-24T20:32:38.787Z,8.83
2018-05-24T20:35:09.027Z,8.70
2018-05-24T20:37:38.027Z,10.77
2018-05-24T20:40:07.036Z,9.20
2018-05-24T20:42:38.203Z,9.77
2018-05-24T20:45:09.152Z,9.97
2018-05-24T20:47:38.891Z,10.30
2018-05-24T20:50:12.051Z,11.17
2018-05-24T20:52:41.026Z,10.50
2018-05-24T20:55:17.795Z,10.33
2018-05-24T20:57:46.903Z,11.53
2018-05-24T21:00:17.511Z,11.53
2018-05-24T21:02:47.244Z,10.30
2018-05-24T21:05:19.062Z,10.50
2018-05-24T21:07:49.840Z,10.33
2018-05-24T21:10:22.603Z,10.73
2018-05-24T21:12:51.566Z,10.97
2018-05-24T21:15:23.069Z,11.13
2018-05-24T21:17:52.197Z,10.80
2018-05-24T21:20:30.018Z,11.03
2018-05-24T21:22:59.199Z,10.00
2018-05-24T21:25:29.791Z,11.83
2018-05-24T21:27:58.769Z,12.17
2018-05-24T21:30:33.187Z,12.17
2018-05-24T21:33:15.418Z,12.27
2018-05-24T21:35:44.590Z,11.80
2018-05-24T21:38:14.639Z,12.20
2018-05-24T21:40:43.863Z,13.88
2018-05-24T21:43:13.856Z,12.20
2018-05-24T21:45:44.148Z,12.57
2018-05-24T21:48:13.122Z,11.80
2018-05-24T21:50:45.057Z,12.30
2018-05-24T21:53:13.980Z,11.30
2018-05-24T21:55:42.848Z,11.70
2018-05-24T21:58:12.856Z,11.57
2018-05-24T22:00:47.952Z,11.60
2018-05-24T22:03:19.646Z,13.23
2018-05-24T22:05:53.162Z,12.30
2018-05-24T22:08:22.159Z,11.33
2018-05-24T22:10:52.401Z,11.67
2018-05-24T22:13:24.179Z,10.73
2018-05-24T22:15:53.273Z,11.10
2018-05-24T22:18:23.620Z,9.73
2018-05-24T22:20:52.906Z,9.33
2018-05-24T22:23:21.852Z,9.00
2018-05-24T22:25:59.468Z,8.83
2018-05-24T22:28:28.356Z,8.43
2018-05-24T22:30:59.430Z,8.43
2018-05-24T22:33:28.359Z,7.83
2018-05-24T22:36:01.750Z,8.23
2018-05-24T22:38:31.152Z,8.40
2018-05-24T22:41:03.703Z,8.10
2018-05-24T22:43:34.564Z,8.43
2018-05-24T22:46:06.040Z,8.73
2018-05-24T22:48:35.128Z,9.43
2018-05-24T22:51:11.212Z,9.33
2018-05-24T22:53:41.095Z,8.07
2018-05-24T22:56:11.581Z,8.83
2018-05-24T22:58:44.058Z,8.97
2018-05-24T23:01:14.214Z,10.27
2018-05-24T23:03:43.057Z,9.63
2018-05-24T23:06:17.408Z,9.47
2018-05-24T23:08:46.462Z,10.27
2018-05-24T23:11:19.737Z,10.10
2018-05-24T23:13:48.591Z,9.40
2018-05-24T23:16:21.435Z,9.23
2018-05-24T23:18:50.706Z,9.93
2018-05-24T23:21:24.342Z,9.83
2018-05-24T23:23:53.923Z,9.50
2018-05-24T23:26:24.689Z,9.20
2018-05-24T23:28:53.580Z,9.27
2018-05-24T23:31:26.914Z,9.80
2018-05-24T23:33:55.805Z,10.50
2018-05-24T23:36:33.058Z,11.00
2018-05-24T23:39:01.843Z,10.57
2018-05-24T23:41:31.180Z,10.03
2018-05-24T23:44:00.320Z,9.43
2018-05-24T23:46:33.152Z,9.30
2018-05-24T23:49:01.894Z,11.13
2018-05-24T23:51:38.799Z,10.37
2018-05-24T23:54:07.676Z,10.20
2018-05-24T23:56:38.044Z,10.37
2018-05-24T23:59:07.100Z,9.63
